createdAt,value
2017-12-30T00:01:30.730Z,10.20
2017-12-30T00:04:06.322Z,11.48
2017-12-30T00:06:40.845Z,14.33
2017-12-30T00:09:15.261Z,12.20
2017-12-30T00:11:51.472Z,10.50
2017-12-30T00:14:26.029Z,10.00
2017-12-30T00:17:00.689Z,11.73
2017-12-30T00:19:35.282Z,13.97
2017-12-30T00:22:09.754Z,9.90
2017-12-30T00:24:44.272Z,9.70
2017-12-30T00:27:19.070Z,12.50
2017-12-30T00:29:53.870Z,13.35
2017-12-30T00:32:28.573Z,7.10
2017-12-30T00:35:03.255Z,9.67
2017-12-30T00:37:37.939Z,7.90
2017-12-30T00:40:12.326Z,11.13
2017-12-30T00:42:46.829Z,13.50
2017-12-30T00:45:21.232Z,7.80
2017-12-30T00:47:55.712Z,6.60
2017-12-30T00:50:30.080Z,7.23
2017-12-30T00:53:04.601Z,11.10
2017-12-30T00:55:38.998Z,10.43
2017-12-30T00:58:15.141Z,14.47
2017-12-30T01:00:49.694Z,7.87
2017-12-30T01:03:24.298Z,9.30
2017-12-30T01:05:58.721Z,14.33
2017-12-30T01:08:33.266Z,22.10
2017-12-30T01:11:07.700Z,18.33
2017-12-30T01:13:42.199Z,24.67
2017-12-30T01:16:16.670Z,24.93
2017-12-30T01:18:51.257Z,10.70
2017-12-30T01:21:26.804Z,10.55
2017-12-30T01:24:01.734Z,10.85
2017-12-30T01:26:36.104Z,14.80
2017-12-30T01:29:10.693Z,11.53
2017-12-30T01:31:45.096Z,16.00
2017-12-30T01:34:19.777Z,13.40
2017-12-30T01:36:54.534Z,12.63
2017-12-30T01:39:29.061Z,14.13
2017-12-30T01:42:03.487Z,15.93
2017-12-30T01:44:38.018Z,11.13
2017-12-30T01:47:12.704Z,24.83
2017-12-30T01:49:47.346Z,8.10
2017-12-30T01:52:21.725Z,12.37
2017-12-30T01:54:56.310Z,16.80
2017-12-30T01:57:30.874Z,12.90
2017-12-30T02:00:05.359Z,10.93
2017-12-30T02:02:40.227Z,22.13
2017-12-30T02:05:14.611Z,11.77
2017-12-30T02:07:49.189Z,18.23
2017-12-30T02:10:23.573Z,11.50
2017-12-30T02:12:58.395Z,8.60
2017-12-30T02:15:33.033Z,9.70
2017-12-30T02:18:07.684Z,8.80
2017-12-30T02:20:42.101Z,12.77
2017-12-30T02:23:17.018Z,11.15
2017-12-30T02:25:51.791Z,11.10
2017-12-30T02:28:26.614Z,10.98
2017-12-30T02:31:01.390Z,13.95
2017-12-30T02:33:36.099Z,10.02
2017-12-30T02:36:10.853Z,14.80
2017-12-30T02:38:45.413Z,10.00
2017-12-30T02:41:19.905Z,9.20
2017-12-30T02:43:54.425Z,7.87
2017-12-30T02:46:28.820Z,7.27
2017-12-30T02:49:03.973Z,9.70
2017-12-30T02:51:38.469Z,9.27
2017-12-30T02:54:14.386Z,7.57
2017-12-30T02:56:48.893Z,5.20
2017-12-30T02:59:23.464Z,12.40
2017-12-30T03:01:57.882Z,7.40
2017-12-30T03:04:32.392Z,8.40
2017-12-30T03:07:07.696Z,9.93
2017-12-30T03:09:42.105Z,8.77
2017-12-30T03:12:16.480Z,7.87
2017-12-30T03:14:51.017Z,20.83
2017-12-30T03:17:25.557Z,9.37
2017-12-30T03:20:00.105Z,10.23
2017-12-30T03:22:34.635Z,12.77
2017-12-30T03:25:09.021Z,10.20
2017-12-30T03:27:43.557Z,15.47
2017-12-30T03:30:17.938Z,11.67
2017-12-30T03:32:52.483Z,13.93
2017-12-30T03:35:26.859Z,13.50
2017-12-30T03:38:01.409Z,8.73
2017-12-30T03:40:35.954Z,13.23
2017-12-30T03:43:10.456Z,10.30
2017-12-30T03:45:44.811Z,7.77
2017-12-30T03:48:19.220Z,9.43
2017-12-30T03:50:53.638Z,9.60
2017-12-30T03:53:28.124Z,8.00
2017-12-30T03:56:02.336Z,10.20
2017-12-30T03:58:36.742Z,10.07
2017-12-30T04:01:11.185Z,12.13
2017-12-30T04:03:45.622Z,10.53
2017-12-30T04:06:20.117Z,10.67
2017-12-30T04:08:54.654Z,17.93
2017-12-30T04:11:29.089Z,14.07
2017-12-30T04:14:03.670Z,11.80
2017-12-30T04:16:38.066Z,13.07
2017-12-30T04:19:12.674Z,8.03
2017-12-30T04:21:47.114Z,12.57
2017-12-30T04:24:22.267Z,16.17
2017-12-30T04:26:56.905Z,6.33
2017-12-30T04:29:31.328Z,14.77
2017-12-30T04:32:05.876Z,9.10
2017-12-30T04:34:40.392Z,12.80
2017-12-30T04:37:15.017Z,29.30
2017-12-30T04:39:49.529Z,9.37
2017-12-30T04:42:23.949Z,15.67
2017-12-30T04:44:58.529Z,18.90
2017-12-30T04:47:32.892Z,7.97
2017-12-30T04:50:07.600Z,10.10
2017-12-30T04:52:42.153Z,9.53
2017-12-30T04:55:16.613Z,10.93
2017-12-30T04:57:51.190Z,6.13
2017-12-30T05:00:25.625Z,9.17
2017-12-30T05:03:00.217Z,6.30
2017-12-30T05:05:34.672Z,10.50
2017-12-30T05:08:09.231Z,8.37
2017-12-30T05:10:43.705Z,9.00
2017-12-30T05:13:18.325Z,5.37
2017-12-30T05:15:52.760Z,5.60
2017-12-30T05:18:27.277Z,7.10
2017-12-30T05:21:01.725Z,8.20
2017-12-30T05:23:36.217Z,6.50
2017-12-30T05:26:10.688Z,9.60
2017-12-30T05:28:45.298Z,6.33
2017-12-30T05:31:19.910Z,7.83
2017-12-30T05:33:54.302Z,6.97
2017-12-30T05:36:29.660Z,9.63
2017-12-30T05:39:03.750Z,4.90
2017-12-30T05:41:38.314Z,9.87
2017-12-30T05:44:12.861Z,9.13
2017-12-30T05:46:47.227Z,9.10
2017-12-30T05:49:21.769Z,5.13
2017-12-30T05:51:56.217Z,4.67
2017-12-30T05:54:30.729Z,4.23
2017-12-30T05:57:05.250Z,6.67
2017-12-30T05:59:39.761Z,4.60
2017-12-30T06:02:14.489Z,6.37
2017-12-30T06:04:48.894Z,6.20
2017-12-30T06:07:23.317Z,12.30
2017-12-30T06:09:57.910Z,5.03
2017-12-30T06:12:32.377Z,8.77
2017-12-30T06:15:06.885Z,5.63
2017-12-30T06:17:41.357Z,5.87
2017-12-30T06:20:15.609Z,4.27
2017-12-30T06:22:50.009Z,10.93
2017-12-30T06:25:24.431Z,11.50
2017-12-30T06:27:58.927Z,16.80
2017-12-30T06:30:33.457Z,13.40
2017-12-30T06:33:08.014Z,6.67
2017-12-30T06:35:42.458Z,6.57
2017-12-30T06:38:17.020Z,4.77
2017-12-30T06:40:51.381Z,5.70
2017-12-30T06:43:25.957Z,5.87
2017-12-30T06:46:00.404Z,3.90
2017-12-30T06:48:34.925Z,5.33
2017-12-30T06:51:09.301Z,3.60
2017-12-30T06:53:43.802Z,7.50
2017-12-30T06:56:18.222Z,7.60
2017-12-30T06:58:52.746Z,9.90
2017-12-30T07:01:27.252Z,15.47
2017-12-30T07:04:02.357Z,11.40
2017-12-30T07:06:36.868Z,14.13
2017-12-30T07:09:11.409Z,19.40
2017-12-30T07:11:46.005Z,13.47
2017-12-30T07:14:20.516Z,10.07
2017-12-30T07:16:54.614Z,15.37
2017-12-30T07:19:29.029Z,12.70
2017-12-30T07:22:03.419Z,8.03
2017-12-30T07:24:38.047Z,12.80
2017-12-30T07:27:12.431Z,14.23
2017-12-30T07:29:46.989Z,15.43
2017-12-30T07:32:21.441Z,12.43
2017-12-30T07:34:55.957Z,12.27
2017-12-30T07:37:30.141Z,12.03
2017-12-30T07:40:04.784Z,15.57
2017-12-30T07:42:39.353Z,16.33
2017-12-30T07:45:13.729Z,8.73
2017-12-30T07:47:48.211Z,11.00
2017-12-30T07:50:22.741Z,6.97
2017-12-30T07:52:57.277Z,7.93
2017-12-30T07:55:31.661Z,5.73
2017-12-30T07:58:06.146Z,5.90
2017-12-30T08:00:40.666Z,9.97
2017-12-30T08:03:15.161Z,6.67
2017-12-30T08:05:49.559Z,6.67
2017-12-30T08:08:24.272Z,7.50
2017-12-30T08:10:58.629Z,8.40
2017-12-30T08:13:33.203Z,9.10
2017-12-30T08:16:07.574Z,8.57
2017-12-30T08:18:42.081Z,6.87
2017-12-30T08:21:16.506Z,6.10
2017-12-30T08:23:51.669Z,8.43
2017-12-30T08:26:26.288Z,4.17
2017-12-30T08:29:00.797Z,6.90
2017-12-30T08:31:35.294Z,5.70
2017-12-30T08:34:09.597Z,5.80
2017-12-30T08:36:44.127Z,8.13
2017-12-30T08:39:18.657Z,3.67
2017-12-30T08:41:53.017Z,3.20
2017-12-30T08:44:27.449Z,3.30
2017-12-30T08:47:01.846Z,3.80
2017-12-30T08:49:36.424Z,7.70
2017-12-30T08:52:10.947Z,5.37
2017-12-30T08:54:46.310Z,5.70
2017-12-30T08:57:20.913Z,6.33
2017-12-30T08:59:55.435Z,2.63
2017-12-30T09:02:29.840Z,9.10
2017-12-30T09:05:04.464Z,3.13
2017-12-30T09:07:39.033Z,11.67
2017-12-30T09:10:13.481Z,3.30
2017-12-30T09:12:48.005Z,5.63
2017-12-30T09:15:22.509Z,3.63
2017-12-30T09:17:57.050Z,1.60
2017-12-30T09:20:31.485Z,3.00
2017-12-30T09:23:06.089Z,2.70
2017-12-30T09:25:40.469Z,4.70
2017-12-30T09:28:14.889Z,4.13
2017-12-30T09:30:49.371Z,8.60
2017-12-30T09:33:23.853Z,2.83
2017-12-30T09:35:58.341Z,2.97
2017-12-30T09:38:32.926Z,4.83
2017-12-30T09:41:08.041Z,1.60
2017-12-30T09:43:42.505Z,3.40
2017-12-30T09:46:16.977Z,7.73
2017-12-30T09:48:51.509Z,7.73
2017-12-30T09:51:26.093Z,8.20
2017-12-30T09:54:00.673Z,5.73
2017-12-30T09:56:35.120Z,10.37
2017-12-30T09:59:09.554Z,9.03
2017-12-30T10:01:43.978Z,7.17
2017-12-30T10:04:18.573Z,8.53
2017-12-30T10:06:52.962Z,10.20
2017-12-30T10:09:27.547Z,9.90
2017-12-30T10:12:01.942Z,10.53
2017-12-30T10:14:36.446Z,11.70
2017-12-30T10:17:10.884Z,10.07
2017-12-30T10:19:45.406Z,13.30
2017-12-30T10:22:19.795Z,14.07
2017-12-30T10:24:54.313Z,11.93
2017-12-30T10:27:28.777Z,23.73
2017-12-30T10:30:03.556Z,9.47
2017-12-30T10:32:38.074Z,14.23
2017-12-30T10:35:12.438Z,10.93
2017-12-30T10:37:46.949Z,7.30
2017-12-30T10:40:21.476Z,11.50
2017-12-30T10:42:55.757Z,9.23
2017-12-30T10:45:30.894Z,12.53
2017-12-30T10:48:05.318Z,7.17
2017-12-30T10:50:39.721Z,6.97
2017-12-30T10:53:14.218Z,8.83
2017-12-30T10:55:48.575Z,8.90
2017-12-30T10:58:23.160Z,14.00
2017-12-30T11:00:59.430Z,12.50
2017-12-30T11:03:33.916Z,8.27
2017-12-30T11:06:08.351Z,8.10
2017-12-30T11:08:42.853Z,11.73
2017-12-30T11:11:17.242Z,12.80
2017-12-30T11:13:51.651Z,12.40
2017-12-30T11:16:26.129Z,13.10
2017-12-30T11:19:00.650Z,8.70
2017-12-30T11:21:35.046Z,13.50
2017-12-30T11:24:09.617Z,9.53
2017-12-30T11:26:44.037Z,11.10
2017-12-30T11:29:18.568Z,13.07
2017-12-30T11:31:52.959Z,11.90
2017-12-30T11:34:27.448Z,6.57
2017-12-30T11:37:01.921Z,8.40
2017-12-30T11:39:36.456Z,12.93
2017-12-30T11:42:10.913Z,6.10
2017-12-30T11:44:45.401Z,20.60
2017-12-30T11:47:19.824Z,6.57
2017-12-30T11:49:54.382Z,10.37
2017-12-30T11:52:28.753Z,10.87
2017-12-30T11:55:03.698Z,8.83
2017-12-30T11:57:38.160Z,7.47
2017-12-30T12:00:12.561Z,7.73
2017-12-30T12:02:47.073Z,11.20
2017-12-30T12:05:21.525Z,8.83
2017-12-30T12:07:56.213Z,7.77
2017-12-30T12:10:30.741Z,13.47
2017-12-30T12:13:05.273Z,7.60
2017-12-30T12:15:39.737Z,8.03
2017-12-30T12:18:14.185Z,15.80
2017-12-30T12:20:48.617Z,16.20
2017-12-30T12:23:23.121Z,8.70
2017-12-30T12:25:57.563Z,15.10
2017-12-30T12:28:32.053Z,13.33
2017-12-30T12:31:06.442Z,11.00
2017-12-30T12:33:41.012Z,10.57
2017-12-30T12:36:15.414Z,11.63
2017-12-30T12:38:50.000Z,13.73
2017-12-30T12:41:24.401Z,11.77
2017-12-30T12:43:58.962Z,9.00
2017-12-30T12:46:33.716Z,9.53
2017-12-30T12:49:08.226Z,12.03
2017-12-30T12:51:42.753Z,11.37
2017-12-30T12:54:17.262Z,11.63
2017-12-30T12:56:51.720Z,15.90
2017-12-30T12:59:26.217Z,12.83
2017-12-30T13:02:00.666Z,52.70
2017-12-30T13:04:35.196Z,11.53
2017-12-30T13:07:09.575Z,14.70
2017-12-30T13:09:44.109Z,12.83
2017-12-30T13:12:18.249Z,18.37
2017-12-30T13:14:52.803Z,16.37
2017-12-30T13:17:27.220Z,18.33
2017-12-30T13:20:01.732Z,14.63
2017-12-30T13:22:36.142Z,15.80
2017-12-30T13:25:10.525Z,20.23
2017-12-30T13:27:45.046Z,12.47
2017-12-30T13:30:19.434Z,15.23
2017-12-30T13:32:53.961Z,11.87
2017-12-30T13:35:28.364Z,15.20
2017-12-30T13:38:02.924Z,12.13
2017-12-30T13:40:37.349Z,21.20
2017-12-30T13:43:11.953Z,28.93
2017-12-30T13:45:46.385Z,28.90
2017-12-30T13:48:20.917Z,14.40
2017-12-30T13:50:55.297Z,27.97
2017-12-30T13:53:29.766Z,16.23
2017-12-30T13:56:04.214Z,22.70
2017-12-30T13:58:38.737Z,22.70
2017-12-30T14:01:13.161Z,24.53
2017-12-30T14:03:47.836Z,18.20
2017-12-30T14:06:22.277Z,22.40
2017-12-30T14:08:56.717Z,15.43
2017-12-30T14:11:31.216Z,22.73
2017-12-30T14:14:05.593Z,13.87
2017-12-30T14:16:39.998Z,14.20
2017-12-30T14:19:14.553Z,13.53
2017-12-30T14:21:48.986Z,14.87
2017-12-30T14:24:23.647Z,11.77
2017-12-30T14:26:58.086Z,16.90
2017-12-30T14:29:32.645Z,13.33
2017-12-30T14:32:07.013Z,9.53
2017-12-30T14:34:41.601Z,11.80
2017-12-30T14:37:16.073Z,8.27
2017-12-30T14:39:50.760Z,7.93
2017-12-30T14:42:25.225Z,7.97
2017-12-30T14:44:59.742Z,9.17
2017-12-30T14:47:34.158Z,6.97
2017-12-30T14:50:08.529Z,6.60
2017-12-30T14:52:43.093Z,11.43
2017-12-30T14:55:17.273Z,13.13
2017-12-30T14:57:51.805Z,11.60
2017-12-30T15:00:26.190Z,13.70
2017-12-30T15:03:00.723Z,10.97
2017-12-30T15:05:35.193Z,12.60
2017-12-30T15:08:09.890Z,11.83
2017-12-30T15:10:44.433Z,13.53
2017-12-30T15:13:18.956Z,13.57
2017-12-30T15:15:53.362Z,12.30
2017-12-30T15:18:27.772Z,17.63
2017-12-30T15:21:02.206Z,19.30
2017-12-30T15:23:36.748Z,13.87
2017-12-30T15:26:11.222Z,15.50
2017-12-30T15:28:45.653Z,13.03
2017-12-30T15:31:20.029Z,13.67
2017-12-30T15:33:54.550Z,20.87
2017-12-30T15:36:29.505Z,18.73
2017-12-30T15:39:03.190Z,21.63
2017-12-30T15:41:37.645Z,18.27
2017-12-30T15:44:12.234Z,23.33
2017-12-30T15:46:46.686Z,20.10
2017-12-30T15:49:21.229Z,20.43
2017-12-30T15:51:55.634Z,18.30
2017-12-30T15:54:30.202Z,21.80
2017-12-30T15:57:04.290Z,21.93
2017-12-30T15:59:38.790Z,25.47
2017-12-30T16:02:13.218Z,20.60
2017-12-30T16:04:47.749Z,22.00
2017-12-30T16:07:22.182Z,19.70
2017-12-30T16:09:56.711Z,27.37
2017-12-30T16:12:31.117Z,24.17
2017-12-30T16:15:05.648Z,19.07
2017-12-30T16:17:40.152Z,21.57
2017-12-30T16:20:14.581Z,17.80
2017-12-30T16:22:49.123Z,18.30
2017-12-30T16:25:23.497Z,18.17
2017-12-30T16:27:58.017Z,22.27
2017-12-30T16:30:32.475Z,20.90
2017-12-30T16:33:06.997Z,23.60
2017-12-30T16:35:41.501Z,23.20
2017-12-30T16:38:16.061Z,21.70
2017-12-30T16:40:50.814Z,19.93
2017-12-30T16:43:25.401Z,24.00
2017-12-30T16:45:59.889Z,18.30
2017-12-30T16:48:34.553Z,17.93
2017-12-30T16:51:08.922Z,19.73
2017-12-30T16:53:43.616Z,20.87
2017-12-30T16:56:18.036Z,22.17
2017-12-30T16:58:52.626Z,24.07
2017-12-30T17:01:27.109Z,23.30
2017-12-30T17:04:01.605Z,25.97
2017-12-30T17:06:35.997Z,40.00
2017-12-30T17:09:10.573Z,42.00
2017-12-30T17:11:45.030Z,31.13
2017-12-30T17:14:19.547Z,24.60
2017-12-30T17:16:53.963Z,21.10
2017-12-30T17:19:29.085Z,31.63
2017-12-30T17:22:03.689Z,32.00
2017-12-30T17:24:38.261Z,31.77
2017-12-30T17:27:12.658Z,27.83
2017-12-30T17:29:47.221Z,54.03
2017-12-30T17:32:21.757Z,45.37
2017-12-30T17:34:56.287Z,35.43
2017-12-30T17:37:30.832Z,26.50
2017-12-30T17:40:05.500Z,26.47
2017-12-30T17:42:39.881Z,29.57
2017-12-30T17:45:14.309Z,31.60
2017-12-30T17:47:48.705Z,28.50
2017-12-30T17:50:23.157Z,30.37
2017-12-30T17:52:57.715Z,28.93
2017-12-30T17:55:32.158Z,29.13
2017-12-30T17:58:06.696Z,25.10
2017-12-30T18:00:41.093Z,25.53
2017-12-30T18:03:15.598Z,30.23
2017-12-30T18:05:49.985Z,28.33
2017-12-30T18:08:24.501Z,27.63
2017-12-30T18:10:58.885Z,25.80
2017-12-30T18:13:33.399Z,24.57
2017-12-30T18:16:07.802Z,27.10
2017-12-30T18:18:42.130Z,28.60
2017-12-30T18:21:16.873Z,25.10
2017-12-30T18:23:51.298Z,27.83
2017-12-30T18:26:25.734Z,28.73
2017-12-30T18:29:00.283Z,28.43
2017-12-30T18:31:34.797Z,29.93
2017-12-30T18:34:09.502Z,37.33
2017-12-30T18:36:44.094Z,35.73
2017-12-30T18:39:18.513Z,25.23
2017-12-30T18:41:52.978Z,31.30
2017-12-30T18:44:27.513Z,31.67
2017-12-30T18:47:01.966Z,35.90
2017-12-30T18:49:36.494Z,29.63
2017-12-30T18:52:10.870Z,28.33
2017-12-30T18:54:45.293Z,33.33
2017-12-30T18:57:20.081Z,53.60
2017-12-30T18:59:54.689Z,64.23
2017-12-30T19:02:29.070Z,31.33
2017-12-30T19:05:03.586Z,36.10
2017-12-30T19:07:38.075Z,30.17
2017-12-30T19:10:12.491Z,22.13
2017-12-30T19:12:47.036Z,23.80
2017-12-30T19:15:21.428Z,17.23
2017-12-30T19:17:56.017Z,18.23
2017-12-30T19:20:30.409Z,16.10
2017-12-30T19:23:04.918Z,10.67
2017-12-30T19:25:39.373Z,7.03
2017-12-30T19:28:13.802Z,8.03
2017-12-30T19:30:48.210Z,14.70
2017-12-30T19:33:22.750Z,11.13
2017-12-30T19:35:57.171Z,6.23
2017-12-30T19:38:31.578Z,11.03
2017-12-30T19:41:05.959Z,10.90
2017-12-30T19:43:40.475Z,10.83
2017-12-30T19:46:14.865Z,11.57
2017-12-30T19:48:50.501Z,11.00
2017-12-30T19:51:24.868Z,10.90
2017-12-30T19:53:59.239Z,6.67
2017-12-30T19:56:33.680Z,9.67
2017-12-30T19:59:08.053Z,12.57
2017-12-30T20:01:42.422Z,12.43
2017-12-30T20:04:16.997Z,13.53
2017-12-30T20:06:52.413Z,18.87
2017-12-30T20:09:26.960Z,13.10
2017-12-30T20:12:01.466Z,17.30
2017-12-30T20:14:35.965Z,21.07
2017-12-30T20:17:10.358Z,22.57
2017-12-30T20:19:44.886Z,24.90
2017-12-30T20:22:19.381Z,30.93
2017-12-30T20:24:53.906Z,35.43
2017-12-30T20:27:28.330Z,39.93
2017-12-30T20:30:03.103Z,35.27
2017-12-30T20:32:37.746Z,33.50
2017-12-30T20:35:12.258Z,29.60
2017-12-30T20:37:46.811Z,36.83
2017-12-30T20:40:21.231Z,39.27
2017-12-30T20:42:55.809Z,31.10
2017-12-30T20:45:30.227Z,35.93
2017-12-30T20:48:04.597Z,37.90
2017-12-30T20:50:39.332Z,38.63
2017-12-30T20:53:13.848Z,46.03
2017-12-30T20:55:48.453Z,40.60
2017-12-30T20:58:22.949Z,37.00
2017-12-30T21:00:57.469Z,39.73
2017-12-30T21:03:32.633Z,39.50
2017-12-30T21:06:07.178Z,33.80
2017-12-30T21:08:41.793Z,34.30
2017-12-30T21:11:16.681Z,35.60
2017-12-30T21:13:51.178Z,41.23
2017-12-30T21:16:25.622Z,47.57
2017-12-30T21:19:00.306Z,47.77
2017-12-30T21:21:34.713Z,47.80
2017-12-30T21:24:09.117Z,41.50
2017-12-30T21:26:43.718Z,38.77
2017-12-30T21:29:18.343Z,38.97
2017-12-30T21:31:52.765Z,35.03
2017-12-30T21:34:27.370Z,26.67
2017-12-30T21:37:02.230Z,29.20
2017-12-30T21:39:37.813Z,22.03
2017-12-30T21:42:12.298Z,16.47
2017-12-30T21:44:46.814Z,19.80
2017-12-30T21:47:21.229Z,16.67
2017-12-30T21:49:55.773Z,15.73
2017-12-30T21:52:30.217Z,18.70
2017-12-30T21:55:04.933Z,16.40
2017-12-30T21:57:39.465Z,13.07
2017-12-30T22:00:14.317Z,14.50
2017-12-30T22:02:48.885Z,13.83
2017-12-30T22:05:23.261Z,19.97
2017-12-30T22:07:57.877Z,15.57
2017-12-30T22:10:32.276Z,17.07
2017-12-30T22:13:06.900Z,19.30
2017-12-30T22:15:41.287Z,14.07
2017-12-30T22:18:15.807Z,14.93
2017-12-30T22:20:50.309Z,18.83
2017-12-30T22:23:24.848Z,17.57
2017-12-30T22:25:59.297Z,20.00
2017-12-30T22:28:33.814Z,18.30
2017-12-30T22:31:08.229Z,15.27
2017-12-30T22:33:42.752Z,24.30
2017-12-30T22:36:17.249Z,15.80
2017-12-30T22:38:51.914Z,14.50
2017-12-30T22:41:26.292Z,15.10
2017-12-30T22:44:00.796Z,19.87
2017-12-30T22:46:35.185Z,25.83
2017-12-30T22:49:09.698Z,17.57
2017-12-30T22:51:44.106Z,13.57
2017-12-30T22:54:18.757Z,14.90
2017-12-30T22:56:53.226Z,11.27
2017-12-30T22:59:27.630Z,12.70
2017-12-30T23:02:02.010Z,17.07
2017-12-30T23:04:36.585Z,12.03
2017-12-30T23:07:11.058Z,20.93
2017-12-30T23:09:45.577Z,13.10
2017-12-30T23:12:19.997Z,14.03
2017-12-30T23:14:54.533Z,12.30
2017-12-30T23:17:28.920Z,15.90
2017-12-30T23:20:03.602Z,15.57
2017-12-30T23:22:38.097Z,12.17
2017-12-30T23:25:12.574Z,14.73
2017-12-30T23:27:47.169Z,19.10
2017-12-30T23:30:21.329Z,17.10
2017-12-30T23:32:55.817Z,18.53
2017-12-30T23:35:30.263Z,15.53
2017-12-30T23:38:04.801Z,9.47
2017-12-30T23:40:39.169Z,13.97
2017-12-30T23:43:13.669Z,14.60
2017-12-30T23:45:48.347Z,21.47
2017-12-30T23:48:22.929Z,14.87
2017-12-30T23:50:57.333Z,26.43
2017-12-30T23:53:31.725Z,15.97
2017-12-30T23:56:06.103Z,18.60
2017-12-30T23:58:40.485Z,14.20
